Snoqualmie Pass, Washington
Current Conditions -  °F | °C
As of 7:53 AM on Sunday 23 Nov 2014 (Local Time) from KRNT Reporting Station
Moderate Rain Moderate Rain  
Wind Chill: 44°   Ceiling: 3600
Heat Index: 49°   Visibility: 3mi
Dew Point: 45°   Wind: 14mph
Humidity: 86%   Direction: 170°S
Pressure: 30.09"   Gusts: 21mph
Location:  47.43°N, 121.4°W
Report Text: KRNT 231553Z 17012G18KT 3SM RA BR SCT022 SCT027 OVC036 09/07 A3009 RMK AO2 PK WND 20026/1543 SLP195 P0029 T00940072
Loading
Personal Weather Stations






























Interactive Weather Map New forecast layout! Learn more

10-Day Weather Forecast

Advertisements
Track Severe Weather on mobile